sensor_id;sensor_type;location;lat;lon;timestamp;pressure;altitude;pressure_sealevel;temperature;humidity
63204;BME280;49297;43.210;27.914;2023-02-28T00:01:25;102161.47;;;8.92;63.88
63204;BME280;49297;43.210;27.914;2023-02-28T00:03:51;102169.41;;;8.92;64.73
63204;BME280;49297;43.210;27.914;2023-02-28T00:06:17;102168.47;;;8.93;64.89
63204;BME280;49297;43.210;27.914;2023-02-28T00:08:43;102164.03;;;8.94;64.61
63204;BME280;49297;43.210;27.914;2023-02-28T00:11:11;102159.66;;;8.93;64.75
63204;BME280;49297;43.210;27.914;2023-02-28T00:13:40;102171.19;;;8.92;65.16
63204;BME280;49297;43.210;27.914;2023-02-28T00:16:09;102178.94;;;8.95;64.87
63204;BME280;49297;43.210;27.914;2023-02-28T00:18:36;102181.38;;;8.98;65.11
63204;BME280;49297;43.210;27.914;2023-02-28T00:21:02;102190.09;;;9.00;65.64
63204;BME280;49297;43.210;27.914;2023-02-28T00:23:28;102179.03;;;8.93;65.47
63204;BME280;49297;43.210;27.914;2023-02-28T00:25:55;102173.09;;;8.90;64.89
63204;BME280;49297;43.210;27.914;2023-02-28T00:28:21;102175.63;;;8.91;65.08
63204;BME280;49297;43.210;27.914;2023-02-28T00:30:47;102170.06;;;8.96;65.05
63204;BME280;49297;43.210;27.914;2023-02-28T00:33:13;102175.16;;;8.99;64.61
63204;BME280;49297;43.210;27.914;2023-02-28T00:35:39;102169.63;;;9.04;64.66
63204;BME280;49297;43.210;27.914;2023-02-28T00:38:05;102167.41;;;8.96;64.89
63204;BME280;49297;43.210;27.914;2023-02-28T00:40:31;102174.59;;;8.94;65.24
63204;BME280;49297;43.210;27.914;2023-02-28T00:42:57;102166.84;;;8.91;65.00
63204;BME280;49297;43.210;27.914;2023-02-28T00:45:22;102167.72;;;8.91;65.17
63204;BME280;49297;43.210;27.914;2023-02-28T00:47:49;102175.63;;;8.91;65.13
63204;BME280;49297;43.210;27.914;2023-02-28T00:50:19;102176.56;;;8.90;65.15
63204;BME280;49297;43.210;27.914;2023-02-28T00:52:46;102166.09;;;8.89;65.30
63204;BME280;49297;43.210;27.914;2023-02-28T00:55:12;102174.84;;;8.89;65.07
63204;BME280;49297;43.210;27.914;2023-02-28T00:57:38;102181.84;;;8.90;65.17
63204;BME280;49297;43.210;27.914;2023-02-28T01:00:04;102176.56;;;8.90;65.03
63204;BME280;49297;43.210;27.914;2023-02-28T01:02:30;102152.78;;;8.90;65.43
63204;BME280;49297;43.210;27.914;2023-02-28T01:04:56;102156.19;;;8.92;65.20
63204;BME280;49297;43.210;27.914;2023-02-28T01:07:23;102168.63;;;8.90;65.53
63204;BME280;49297;43.210;27.914;2023-02-28T01:09:49;102172.22;;;8.89;65.54
63204;BME280;49297;43.210;27.914;2023-02-28T01:12:15;102181.09;;;8.88;65.04
63204;BME280;49297;43.210;27.914;2023-02-28T01:14:41;102204.28;;;8.83;64.56
63204;BME280;49297;43.210;27.914;2023-02-28T01:17:08;102203.44;;;8.83;65.25
63204;BME280;49297;43.210;27.914;2023-02-28T01:19:34;102219.38;;;8.81;64.92
63204;BME280;49297;43.210;27.914;2023-02-28T01:22:05;102208.72;;;8.83;65.08
63204;BME280;49297;43.210;27.914;2023-02-28T01:24:31;102196.28;;;8.85;65.64
63204;BME280;49297;43.210;27.914;2023-02-28T01:26:57;102211.16;;;8.86;65.95
63204;BME280;49297;43.210;27.914;2023-02-28T01:29:23;102219.88;;;8.88;65.18
63204;BME280;49297;43.210;27.914;2023-02-28T01:31:48;102224.09;;;8.90;65.93
63204;BME280;49297;43.210;27.914;2023-02-28T01:34:14;102213.81;;;8.86;65.44
63204;BME280;49297;43.210;27.914;2023-02-28T01:36:40;102206.84;;;8.85;65.55
63204;BME280;49297;43.210;27.914;2023-02-28T01:39:06;102195.53;;;8.83;65.34
63204;BME280;49297;43.210;27.914;2023-02-28T01:41:34;102200.03;;;8.81;65.48
63204;BME280;49297;43.210;27.914;2023-02-28T01:46:51;102199.53;;;8.74;65.34
63204;BME280;49297;43.210;27.914;2023-02-28T01:49:17;102205.84;;;8.71;65.00
63204;BME280;49297;43.210;27.914;2023-02-28T01:51:46;102215.56;;;8.71;65.29
63204;BME280;49297;43.210;27.914;2023-02-28T01:54:31;102219.31;;;8.67;65.49
63204;BME280;49297;43.210;27.914;2023-02-28T01:57:05;102214.22;;;8.64;65.23
63204;BME280;49297;43.210;27.914;2023-02-28T01:59:47;102213.38;;;8.63;65.72
63204;BME280;49297;43.210;27.914;2023-02-28T02:02:17;102223.94;;;8.63;65.74
63204;BME280;49297;43.210;27.914;2023-02-28T02:05:00;102225.97;;;8.58;65.45
63204;BME280;49297;43.210;27.914;2023-02-28T02:07:32;102218.22;;;8.55;65.60
63204;BME280;49297;43.210;27.914;2023-02-28T02:10:17;102202.38;;;8.55;65.52
63204;BME280;49297;43.210;27.914;2023-02-28T02:13:00;102209.38;;;8.56;65.79
63204;BME280;49297;43.210;27.914;2023-02-28T02:15:49;102218.22;;;8.55;66.05
63204;BME280;49297;43.210;27.914;2023-02-28T02:26:44;102221.22;;;8.49;65.65
63204;BME280;49297;43.210;27.914;2023-02-28T02:42:45;102210.22;;;8.41;65.73
63204;BME280;49297;43.210;27.914;2023-02-28T02:45:18;102202.16;;;8.44;65.64
63204;BME280;49297;43.210;27.914;2023-02-28T02:47:48;102229.31;;;8.46;65.69
63204;BME280;49297;43.210;27.914;2023-02-28T02:50:23;102248.72;;;8.45;65.94
63204;BME280;49297;43.210;27.914;2023-02-28T02:52:53;102250.50;;;8.44;65.58
63204;BME280;49297;43.210;27.914;2023-02-28T02:55:22;102226.00;;;8.42;65.03
63204;BME280;49297;43.210;27.914;2023-02-28T02:58:01;102217.16;;;8.43;65.07
63204;BME280;49297;43.210;27.914;2023-02-28T03:00:38;102226.69;;;8.46;65.00
63204;BME280;49297;43.210;27.914;2023-02-28T03:03:08;102212.81;;;8.42;65.14
63204;BME280;49297;43.210;27.914;2023-02-28T03:05:47;102218.84;;;8.44;65.36
63204;BME280;49297;43.210;27.914;2023-02-28T03:08:13;102236.41;;;8.45;65.34
63204;BME280;49297;43.210;27.914;2023-02-28T03:10:45;102242.44;;;8.47;65.23
63204;BME280;49297;43.210;27.914;2023-02-28T03:13:18;102251.09;;;8.49;65.01
63204;BME280;49297;43.210;27.914;2023-02-28T03:18:32;102278.34;;;8.50;65.33
63204;BME280;49297;43.210;27.914;2023-02-28T03:21:13;102277.59;;;8.48;65.52
63204;BME280;49297;43.210;27.914;2023-02-28T03:23:51;102270.50;;;8.48;65.33
63204;BME280;49297;43.210;27.914;2023-02-28T03:26:22;102247.88;;;8.44;64.30
63204;BME280;49297;43.210;27.914;2023-02-28T03:28:55;102236.59;;;8.41;64.37
63204;BME280;49297;43.210;27.914;2023-02-28T03:31:33;102228.69;;;8.41;65.11
63204;BME280;49297;43.210;27.914;2023-02-28T03:36:37;102259.53;;;8.40;64.71
63204;BME280;49297;43.210;27.914;2023-02-28T03:39:13;102243.69;;;8.40;64.81
63204;BME280;49297;43.210;27.914;2023-02-28T03:41:47;102250.75;;;8.39;64.65
63204;BME280;49297;43.210;27.914;2023-02-28T03:44:44;102250.66;;;8.41;65.36
63204;BME280;49297;43.210;27.914;2023-02-28T03:47:12;102262.16;;;8.40;64.58
63204;BME280;49297;43.210;27.914;2023-02-28T03:49:50;102260.03;;;8.31;64.88
63204;BME280;49297;43.210;27.914;2023-02-28T03:52:19;102277.72;;;8.29;64.44
63204;BME280;49297;43.210;27.914;2023-02-28T03:54:53;102275.88;;;8.31;65.07
63204;BME280;49297;43.210;27.914;2023-02-28T03:59:59;102282.66;;;8.19;65.17
63204;BME280;49297;43.210;27.914;2023-02-28T04:02:31;102286.34;;;8.16;65.69
63204;BME280;49297;43.210;27.914;2023-02-28T04:04:57;102282.66;;;8.19;64.98
63204;BME280;49297;43.210;27.914;2023-02-28T04:07:29;102278.06;;;8.23;65.59
63204;BME280;49297;43.210;27.914;2023-02-28T04:09:56;102260.72;;;8.18;64.99
63204;BME280;49297;43.210;27.914;2023-02-28T04:12:22;102251.50;;;8.10;64.72
63204;BME280;49297;43.210;27.914;2023-02-28T04:14:49;102258.75;;;8.06;65.25
63204;BME280;49297;43.210;27.914;2023-02-28T04:17:15;102264.09;;;8.05;64.97
63204;BME280;49297;43.210;27.914;2023-02-28T04:19:41;102272.25;;;8.00;65.33
63204;BME280;49297;43.210;27.914;2023-02-28T04:22:09;102274.81;;;8.01;65.41
63204;BME280;49297;43.210;27.914;2023-02-28T04:24:35;102265.91;;;8.04;65.44
63204;BME280;49297;43.210;27.914;2023-02-28T04:27:01;102265.81;;;8.06;65.08
63204;BME280;49297;43.210;27.914;2023-02-28T04:29:29;102260.53;;;8.06;65.64
63204;BME280;49297;43.210;27.914;2023-02-28T04:31:56;102269.22;;;8.08;65.72
63204;BME280;49297;43.210;27.914;2023-02-28T04:34:30;102260.28;;;8.10;65.75
63204;BME280;49297;43.210;27.914;2023-02-28T04:36:57;102260.03;;;8.15;65.48
63204;BME280;49297;43.210;27.914;2023-02-28T04:39:25;102258.06;;;8.18;65.54
63204;BME280;49297;43.210;27.914;2023-02-28T04:41:50;102250.25;;;8.17;64.95
63204;BME280;49297;43.210;27.914;2023-02-28T04:44:16;102242.56;;;8.12;65.24
63204;BME280;49297;43.210;27.914;2023-02-28T04:46:43;102237.38;;;8.11;65.48
63204;BME280;49297;43.210;27.914;2023-02-28T04:49:12;102237.56;;;8.08;65.09
63204;BME280;49297;43.210;27.914;2023-02-28T04:51:38;102240.44;;;8.03;65.45
63204;BME280;49297;43.210;27.914;2023-02-28T04:54:04;102248.59;;;7.98;65.01
63204;BME280;49297;43.210;27.914;2023-02-28T04:56:31;102255.81;;;7.95;65.82
63204;BME280;49297;43.210;27.914;2023-02-28T04:58:57;102261.97;;;7.95;65.53
63204;BME280;49297;43.210;27.914;2023-02-28T05:01:24;102257.47;;;7.97;65.43
63204;BME280;49297;43.210;27.914;2023-02-28T05:03:52;102256.69;;;7.95;65.81
63204;BME280;49297;43.210;27.914;2023-02-28T05:06:19;102256.09;;;7.90;65.83
63204;BME280;49297;43.210;27.914;2023-02-28T05:08:46;102274.38;;;7.93;65.72
63204;BME280;49297;43.210;27.914;2023-02-28T05:11:21;102253.97;;;7.97;65.94
63204;BME280;49297;43.210;27.914;2023-02-28T05:13:48;102246.16;;;7.95;65.95
63204;BME280;49297;43.210;27.914;2023-02-28T05:16:14;102251.50;;;7.94;66.14
63204;BME280;49297;43.210;27.914;2023-02-28T05:18:40;102266.13;;;7.99;65.94
63204;BME280;49297;43.210;27.914;2023-02-28T05:21:28;102278.56;;;7.97;66.58
63204;BME280;49297;43.210;27.914;2023-02-28T05:23:56;102277.25;;;7.89;66.06
63204;BME280;49297;43.210;27.914;2023-02-28T05:26:23;102274.63;;;7.89;66.35
63204;BME280;49297;43.210;27.914;2023-02-28T05:28:49;102275.72;;;7.85;66.36
63204;BME280;49297;43.210;27.914;2023-02-28T05:31:15;102279.13;;;7.87;66.63
63204;BME280;49297;43.210;27.914;2023-02-28T05:33:41;102283.56;;;7.86;66.50
63204;BME280;49297;43.210;27.914;2023-02-28T05:36:07;102296.41;;;7.92;66.64
63204;BME280;49297;43.210;27.914;2023-02-28T05:38:33;102313.00;;;7.94;66.69
63204;BME280;49297;43.210;27.914;2023-02-28T05:40:59;102338.38;;;7.97;66.60
63204;BME280;49297;43.210;27.914;2023-02-28T05:43:25;102349.16;;;7.92;66.70
63204;BME280;49297;43.210;27.914;2023-02-28T05:45:50;102366.69;;;7.93;66.49
63204;BME280;49297;43.210;27.914;2023-02-28T05:48:16;102369.22;;;7.95;66.57
63204;BME280;49297;43.210;27.914;2023-02-28T05:50:43;102381.56;;;7.94;67.21
63204;BME280;49297;43.210;27.914;2023-02-28T05:53:11;102379.69;;;7.96;66.76
63204;BME280;49297;43.210;27.914;2023-02-28T05:55:37;102359.56;;;7.95;67.09
63204;BME280;49297;43.210;27.914;2023-02-28T05:58:03;102358.69;;;7.95;67.60
63204;BME280;49297;43.210;27.914;2023-02-28T06:00:29;102356.03;;;7.95;68.21
63204;BME280;49297;43.210;27.914;2023-02-28T06:02:55;102343.03;;;7.92;68.03
63204;BME280;49297;43.210;27.914;2023-02-28T06:05:23;102345.00;;;7.88;69.19
63204;BME280;49297;43.210;27.914;2023-02-28T06:07:49;102358.03;;;7.74;68.96
63204;BME280;49297;43.210;27.914;2023-02-28T06:10:16;102365.53;;;7.64;70.22
63204;BME280;49297;43.210;27.914;2023-02-28T06:12:42;102371.06;;;7.59;70.09
63204;BME280;49297;43.210;27.914;2023-02-28T06:15:12;102372.06;;;7.57;70.86
63204;BME280;49297;43.210;27.914;2023-02-28T06:17:39;102364.84;;;7.60;71.06
63204;BME280;49297;43.210;27.914;2023-02-28T06:20:05;102373.47;;;7.64;71.17
63204;BME280;49297;43.210;27.914;2023-02-28T06:22:31;102361.03;;;7.66;71.62
63204;BME280;49297;43.210;27.914;2023-02-28T06:24:57;102363.75;;;7.65;71.67
63204;BME280;49297;43.210;27.914;2023-02-28T06:27:23;102364.78;;;7.62;71.86
63204;BME280;49297;43.210;27.914;2023-02-28T06:29:49;102372.69;;;7.62;71.77
63204;BME280;49297;43.210;27.914;2023-02-28T06:32:14;102358.47;;;7.65;71.67
63204;BME280;49297;43.210;27.914;2023-02-28T06:34:40;102366.31;;;7.66;71.75
63204;BME280;49297;43.210;27.914;2023-02-28T06:37:07;102362.69;;;7.69;72.19
63204;BME280;49297;43.210;27.914;2023-02-28T06:39:33;102363.38;;;7.72;72.19
63204;BME280;49297;43.210;27.914;2023-02-28T06:41:59;102352.75;;;7.74;71.96
63204;BME280;49297;43.210;27.914;2023-02-28T06:44:25;102351.75;;;7.76;72.11
63204;BME280;49297;43.210;27.914;2023-02-28T06:46:50;102351.66;;;7.78;71.91
63204;BME280;49297;43.210;27.914;2023-02-28T06:49:17;102345.38;;;7.80;72.62
63204;BME280;49297;43.210;27.914;2023-02-28T06:51:44;102347.84;;;7.84;72.26
63204;BME280;49297;43.210;27.914;2023-02-28T06:54:13;102359.56;;;7.78;72.14
63204;BME280;49297;43.210;27.914;2023-02-28T06:56:39;102361.59;;;7.73;72.40
63204;BME280;49297;43.210;27.914;2023-02-28T06:59:05;102364.38;;;7.70;72.48
63204;BME280;49297;43.210;27.914;2023-02-28T07:01:31;102358.97;;;7.73;72.19
63204;BME280;49297;43.210;27.914;2023-02-28T07:03:59;102350.19;;;7.72;71.98
63204;BME280;49297;43.210;27.914;2023-02-28T07:06:25;102348.41;;;7.73;72.55
63204;BME280;49297;43.210;27.914;2023-02-28T07:08:53;102361.66;;;7.71;71.92
63204;BME280;49297;43.210;27.914;2023-02-28T07:11:20;102364.16;;;7.74;71.83
63204;BME280;49297;43.210;27.914;2023-02-28T07:13:49;102368.25;;;7.80;72.34
63204;BME280;49297;43.210;27.914;2023-02-28T07:16:14;102362.84;;;7.83;72.49
63204;BME280;49297;43.210;27.914;2023-02-28T07:18:40;102361.72;;;7.87;72.12
63204;BME280;49297;43.210;27.914;2023-02-28T07:21:08;102366.09;;;7.88;72.94
63204;BME280;49297;43.210;27.914;2023-02-28T07:23:35;102362.41;;;7.91;72.10
63204;BME280;49297;43.210;27.914;2023-02-28T07:26:01;102363.19;;;7.93;72.48
63204;BME280;49297;43.210;27.914;2023-02-28T07:28:27;102356.03;;;7.95;72.63
63204;BME280;49297;43.210;27.914;2023-02-28T07:30:52;102369.22;;;7.95;72.52
63204;BME280;49297;43.210;27.914;2023-02-28T07:33:18;102359.56;;;7.95;72.70
63204;BME280;49297;43.210;27.914;2023-02-28T07:35:44;102356.66;;;8.00;73.10
63204;BME280;49297;43.210;27.914;2023-02-28T07:38:10;102344.56;;;7.96;72.90
63204;BME280;49297;43.210;27.914;2023-02-28T07:40:36;102341.00;;;7.97;72.48
63204;BME280;49297;43.210;27.914;2023-02-28T07:43:03;102337.44;;;7.98;72.49
63204;BME280;49297;43.210;27.914;2023-02-28T07:45:29;102334.72;;;7.99;72.63
63204;BME280;49297;43.210;27.914;2023-02-28T07:47:57;102333.09;;;7.97;71.93
63204;BME280;49297;43.210;27.914;2023-02-28T07:50:23;102339.28;;;7.96;72.09
63204;BME280;49297;43.210;27.914;2023-02-28T07:52:49;102354.97;;;7.99;71.95
63204;BME280;49297;43.210;27.914;2023-02-28T07:55:15;102343.31;;;8.03;72.67
63204;BME280;49297;43.210;27.914;2023-02-28T07:57:42;102345.34;;;7.98;72.26
63204;BME280;49297;43.210;27.914;2023-02-28T08:00:10;102354.34;;;7.94;71.85
63204;BME280;49297;43.210;27.914;2023-02-28T08:02:36;102360.47;;;7.94;71.92
63204;BME280;49297;43.210;27.914;2023-02-28T08:05:02;102371.03;;;7.94;72.03
63204;BME280;49297;43.210;27.914;2023-02-28T08:07:28;102376.22;;;7.96;72.13
63204;BME280;49297;43.210;27.914;2023-02-28T08:09:54;102388.38;;;7.98;72.02
63204;BME280;49297;43.210;27.914;2023-02-28T08:12:20;102392.59;;;8.03;71.95
63204;BME280;49297;43.210;27.914;2023-02-28T08:14:46;102392.31;;;8.07;71.75
63204;BME280;49297;43.210;27.914;2023-02-28T08:17:12;102397.53;;;8.09;72.03
63204;BME280;49297;43.210;27.914;2023-02-28T08:19:38;102387.66;;;8.12;72.42
63204;BME280;49297;43.210;27.914;2023-02-28T08:22:04;102387.84;;;8.09;71.36
63204;BME280;49297;43.210;27.914;2023-02-28T08:24:30;102382.72;;;8.06;70.86
63204;BME280;49297;43.210;27.914;2023-02-28T08:26:56;102392.31;;;8.07;71.12
63204;BME280;49297;43.210;27.914;2023-02-28T08:29:22;102392.50;;;8.04;71.34
63204;BME280;49297;43.210;27.914;2023-02-28T08:31:48;102389.00;;;8.04;70.67
63204;BME280;49297;43.210;27.914;2023-02-28T08:34:15;102387.84;;;8.09;71.29
63204;BME280;49297;43.210;27.914;2023-02-28T08:36:42;102397.44;;;8.10;70.67
63204;BME280;49297;43.210;27.914;2023-02-28T08:39:12;102386.06;;;8.10;70.95
63204;BME280;49297;43.210;27.914;2023-02-28T08:41:38;102390.38;;;8.11;71.48
63204;BME280;49297;43.210;27.914;2023-02-28T08:44:04;102393.13;;;8.09;71.23
63204;BME280;49297;43.210;27.914;2023-02-28T08:46:30;102398.28;;;8.11;71.09
63204;BME280;49297;43.210;27.914;2023-02-28T08:48:56;102394.81;;;8.10;70.54
63204;BME280;49297;43.210;27.914;2023-02-28T08:51:27;102388.78;;;8.08;71.29
63204;BME280;49297;43.210;27.914;2023-02-28T08:54:02;102392.44;;;8.06;71.26
63204;BME280;49297;43.210;27.914;2023-02-28T08:56:29;102398.47;;;8.08;71.23
63204;BME280;49297;43.210;27.914;2023-02-28T08:58:56;102403.50;;;8.12;70.87
63204;BME280;49297;43.210;27.914;2023-02-28T09:01:24;102405.22;;;8.13;71.03
63204;BME280;49297;43.210;27.914;2023-02-28T09:03:53;102396.19;;;8.17;71.02
63204;BME280;49297;43.210;27.914;2023-02-28T09:06:21;102390.75;;;8.20;71.00
63204;BME280;49297;43.210;27.914;2023-02-28T09:08:47;102395.00;;;8.23;71.22
63204;BME280;49297;43.210;27.914;2023-02-28T09:11:13;102379.94;;;8.25;71.04
63204;BME280;49297;43.210;27.914;2023-02-28T09:13:40;102382.84;;;8.20;71.14
63204;BME280;49297;43.210;27.914;2023-02-28T09:16:08;102391.59;;;8.21;70.85
63204;BME280;49297;43.210;27.914;2023-02-28T09:18:36;102384.16;;;8.29;71.37
63204;BME280;49297;43.210;27.914;2023-02-28T09:21:12;102383.81;;;8.35;70.83
63204;BME280;49297;43.210;27.914;2023-02-28T09:23:40;102383.72;;;8.37;70.73
63204;BME280;49297;43.210;27.914;2023-02-28T09:26:07;102379.13;;;8.41;69.96
63204;BME280;49297;43.210;27.914;2023-02-28T09:28:33;102385.38;;;8.39;70.29
63204;BME280;49297;43.210;27.914;2023-02-28T09:30:59;102379.28;;;8.37;70.46
63204;BME280;49297;43.210;27.914;2023-02-28T09:33:25;102389.56;;;8.44;70.65
63204;BME280;49297;43.210;27.914;2023-02-28T09:35:58;102390.25;;;8.47;69.97
63204;BME280;49297;43.210;27.914;2023-02-28T09:38:24;102389.50;;;8.45;69.68
63204;BME280;49297;43.210;27.914;2023-02-28T09:40:53;102388.25;;;8.35;70.15
63204;BME280;49297;43.210;27.914;2023-02-28T09:43:22;102388.94;;;8.38;69.83
63204;BME280;49297;43.210;27.914;2023-02-28T09:46:00;102399.28;;;8.43;70.25
63204;BME280;49297;43.210;27.914;2023-02-28T09:48:33;102406.25;;;8.44;69.93
63204;BME280;49297;43.210;27.914;2023-02-28T09:53:58;102404.91;;;8.35;69.54
63204;BME280;49297;43.210;27.914;2023-02-28T09:56:37;102415.31;;;8.38;69.25
63204;BME280;49297;43.210;27.914;2023-02-28T10:04:50;102423.03;;;8.43;69.49
63204;BME280;49297;43.210;27.914;2023-02-28T10:10:27;102424.00;;;8.41;69.39
63204;BME280;49297;43.210;27.914;2023-02-28T10:12:56;102436.22;;;8.43;68.71
63204;BME280;49297;43.210;27.914;2023-02-28T10:15:26;102412.38;;;8.45;69.29
63204;BME280;49297;43.210;27.914;2023-02-28T10:17:57;102409.97;;;8.40;68.45
63204;BME280;49297;43.210;27.914;2023-02-28T10:20:25;102409.34;;;8.35;68.89
63204;BME280;49297;43.210;27.914;2023-02-28T10:26:18;102397.88;;;8.36;69.21
63204;BME280;49297;43.210;27.914;2023-02-28T10:28:44;102400.75;;;8.31;69.32
63204;BME280;49297;43.210;27.914;2023-02-28T10:31:18;102394.94;;;8.25;68.70
63204;BME280;49297;43.210;27.914;2023-02-28T10:33:45;102384.47;;;8.23;68.67
63204;BME280;49297;43.210;27.914;2023-02-28T10:36:16;102377.91;;;8.30;69.00
63204;BME280;49297;43.210;27.914;2023-02-28T10:38:43;102379.56;;;8.33;69.01
63204;BME280;49297;43.210;27.914;2023-02-28T10:41:15;102377.69;;;8.35;68.76
63204;BME280;49297;43.210;27.914;2023-02-28T10:43:43;102372.31;;;8.36;68.44
63204;BME280;49297;43.210;27.914;2023-02-28T10:48:38;102366.66;;;8.44;69.22
63204;BME280;49297;43.210;27.914;2023-02-28T10:51:07;102364.78;;;8.46;69.39
63204;BME280;49297;43.210;27.914;2023-02-28T10:53:55;102365.16;;;8.38;68.53
63204;BME280;49297;43.210;27.914;2023-02-28T10:56:22;102357.41;;;8.35;68.70
63204;BME280;49297;43.210;27.914;2023-02-28T11:01:44;102344.91;;;8.39;68.69
63204;BME280;49297;43.210;27.914;2023-02-28T11:09:46;102342.59;;;8.50;68.53
63204;BME280;49297;43.210;27.914;2023-02-28T11:12:38;102340.50;;;8.55;68.75
63204;BME280;49297;43.210;27.914;2023-02-28T11:15:26;102344.34;;;8.66;68.64
63204;BME280;49297;43.210;27.914;2023-02-28T11:18:01;102351.19;;;8.70;68.26
63204;BME280;49297;43.210;27.914;2023-02-28T11:20:32;102345.78;;;8.71;68.79
63204;BME280;49297;43.210;27.914;2023-02-28T11:23:01;102345.78;;;8.71;69.05
63204;BME280;49297;43.210;27.914;2023-02-28T11:25:37;102336.44;;;8.66;68.64
63204;BME280;49297;43.210;27.914;2023-02-28T11:28:05;102342.31;;;8.71;68.66
63204;BME280;49297;43.210;27.914;2023-02-28T11:30:35;102339.75;;;8.69;68.75
63204;BME280;49297;43.210;27.914;2023-02-28T11:36:01;102329.53;;;8.63;69.22
63204;BME280;49297;43.210;27.914;2023-02-28T11:38:27;102327.16;;;8.58;68.96
63204;BME280;49297;43.210;27.914;2023-02-28T11:51:25;102321.53;;;8.49;68.97
63204;BME280;49297;43.210;27.914;2023-02-28T11:56:43;102317.25;;;8.46;69.19
63204;BME280;49297;43.210;27.914;2023-02-28T11:59:50;102309.03;;;8.52;68.42
63204;BME280;49297;43.210;27.914;2023-02-28T12:05:14;102305.09;;;8.60;68.52
63204;BME280;49297;43.210;27.914;2023-02-28T12:25:40;102311.75;;;8.51;67.09
63204;BME280;49297;43.210;27.914;2023-02-28T12:27:38;102316.25;;;8.49;67.38
63204;BME280;49297;43.210;27.914;2023-02-28T12:30:21;102309.44;;;8.45;67.22
63204;BME280;49297;43.210;27.914;2023-02-28T12:32:53;102313.31;;;8.37;67.12
63204;BME280;49297;43.210;27.914;2023-02-28T12:35:33;102314.84;;;8.26;67.13
63204;BME280;49297;43.210;27.914;2023-02-28T12:38:10;102317.41;;;8.27;67.25
63204;BME280;49297;43.210;27.914;2023-02-28T12:41:00;102320.75;;;8.31;67.34
63204;BME280;49297;43.210;27.914;2023-02-28T12:43:36;102321.50;;;8.33;67.65
63204;BME280;49297;43.210;27.914;2023-02-28T12:46:21;102319.94;;;8.29;67.73
63204;BME280;49297;43.210;27.914;2023-02-28T12:48:55;102309.16;;;8.33;67.30
63204;BME280;49297;43.210;27.914;2023-02-28T12:51:22;102303.63;;;8.38;67.67
63204;BME280;49297;43.210;27.914;2023-02-28T12:54:10;102299.75;;;8.45;67.43
63204;BME280;49297;43.210;27.914;2023-02-28T12:57:09;102310.09;;;8.48;67.81
63204;BME280;49297;43.210;27.914;2023-02-28T12:59:42;102310.31;;;8.45;67.22
63204;BME280;49297;43.210;27.914;2023-02-28T13:02:32;102314.00;;;8.41;67.24
63204;BME280;49297;43.210;27.914;2023-02-28T13:08:13;102313.97;;;8.25;67.24
63204;BME280;49297;43.210;27.914;2023-02-28T13:10:48;102308.22;;;8.18;67.53
63204;BME280;49297;43.210;27.914;2023-02-28T13:13:30;102300.44;;;8.15;68.09
63204;BME280;49297;43.210;27.914;2023-02-28T13:16:08;102303.31;;;8.11;67.77
63204;BME280;49297;43.210;27.914;2023-02-28T13:21:03;102319.06;;;8.12;67.84
63204;BME280;49297;43.210;27.914;2023-02-28T13:26:23;102324.44;;;8.11;67.93
63204;BME280;49297;43.210;27.914;2023-02-28T13:34:36;102310.47;;;8.09;67.69
63204;BME280;49297;43.210;27.914;2023-02-28T13:47:48;102319.50;;;8.05;68.31
63204;BME280;49297;43.210;27.914;2023-02-28T13:56:03;102301.75;;;7.91;68.23
63204;BME280;49297;43.210;27.914;2023-02-28T14:01:53;102289.41;;;7.91;67.96
63204;BME280;49297;43.210;27.914;2023-02-28T14:07:31;102283.84;;;7.97;68.06
63204;BME280;49297;43.210;27.914;2023-02-28T14:10:04;102283.16;;;7.94;68.50
63204;BME280;49297;43.210;27.914;2023-02-28T14:17:56;102290.69;;;7.84;68.64
63204;BME280;49297;43.210;27.914;2023-02-28T14:20:31;102291.38;;;7.88;68.74
63204;BME280;49297;43.210;27.914;2023-02-28T14:34:37;102292.56;;;7.65;68.80
63204;BME280;49297;43.210;27.914;2023-02-28T14:37:13;102298.81;;;7.63;68.81
63204;BME280;49297;43.210;27.914;2023-02-28T14:39:42;102298.47;;;7.70;68.85
63204;BME280;49297;43.210;27.914;2023-02-28T14:42:33;102298.09;;;7.77;68.76
63204;BME280;49297;43.210;27.914;2023-02-28T14:44:59;102301.56;;;7.78;68.87
63204;BME280;49297;43.210;27.914;2023-02-28T14:47:31;102287.69;;;7.74;68.37
63204;BME280;49297;43.210;27.914;2023-02-28T14:49:58;102310.66;;;7.72;68.31
63204;BME280;49297;43.210;27.914;2023-02-28T14:52:27;102306.22;;;7.73;68.33
63204;BME280;49297;43.210;27.914;2023-02-28T14:55:00;102297.63;;;7.69;68.71
63204;BME280;49297;43.210;27.914;2023-02-28T14:57:38;102305.19;;;7.59;68.62
63204;BME280;49297;43.210;27.914;2023-02-28T15:00:13;102304.47;;;7.56;68.26
63204;BME280;49297;43.210;27.914;2023-02-28T15:02:40;102309.81;;;7.54;68.65
63204;BME280;49297;43.210;27.914;2023-02-28T15:05:18;102313.31;;;7.55;68.46
63204;BME280;49297;43.210;27.914;2023-02-28T15:07:46;102307.00;;;7.57;68.85
63204;BME280;49297;43.210;27.914;2023-02-28T15:13:05;102300.28;;;7.52;69.14
63204;BME280;49297;43.210;27.914;2023-02-28T15:18:03;102296.94;;;7.48;69.07
63204;BME280;49297;43.210;27.914;2023-02-28T15:20:32;102302.22;;;7.48;69.01
63204;BME280;49297;43.210;27.914;2023-02-28T15:22:58;102300.53;;;7.47;68.98
63204;BME280;49297;43.210;27.914;2023-02-28T15:25:25;102299.59;;;7.48;68.84
63204;BME280;49297;43.210;27.914;2023-02-28T15:27:56;102306.56;;;7.49;69.48
63204;BME280;49297;43.210;27.914;2023-02-28T15:30:31;102302.06;;;7.51;69.30
63204;BME280;49297;43.210;27.914;2023-02-28T15:33:20;102303.00;;;7.50;69.33
63204;BME280;49297;43.210;27.914;2023-02-28T15:35:46;102309.69;;;7.40;69.40
63204;BME280;49297;43.210;27.914;2023-02-28T15:38:22;102307.97;;;7.39;69.40